createdAt,value
2019-03-25T00:00:44.344Z,2.30
2019-03-25T00:01:44.345Z,2.30
2019-03-25T00:02:44.407Z,2.30
2019-03-25T00:03:44.342Z,2.30
2019-03-25T00:04:44.346Z,2.30
2019-03-25T00:05:44.409Z,2.30
2019-03-25T00:06:44.350Z,2.30
2019-03-25T00:07:44.397Z,3.00
2019-03-25T00:08:44.321Z,3.00
2019-03-25T00:09:44.416Z,3.00
2019-03-25T00:10:44.399Z,3.00
2019-03-25T00:11:44.380Z,3.00
2019-03-25T00:12:44.359Z,3.00
2019-03-25T00:13:44.280Z,3.00
2019-03-25T00:14:44.415Z,3.00
2019-03-25T00:15:44.298Z,3.00
2019-03-25T00:16:44.299Z,3.00
2019-03-25T00:17:44.365Z,2.40
2019-03-25T00:18:44.301Z,2.40
2019-03-25T00:19:44.358Z,2.40
2019-03-25T00:20:44.369Z,2.40
2019-03-25T00:21:44.349Z,2.40
2019-03-25T00:22:44.415Z,2.40
2019-03-25T00:23:44.372Z,2.40
2019-03-25T00:24:44.294Z,2.40
2019-03-25T00:25:44.365Z,2.40
2019-03-25T00:26:44.329Z,2.40
2019-03-25T00:27:44.413Z,3.00
2019-03-25T00:28:44.294Z,3.00
2019-03-25T00:29:44.289Z,3.00
2019-03-25T00:30:44.386Z,3.00
2019-03-25T00:31:44.356Z,3.00
2019-03-25T00:32:44.360Z,3.00
2019-03-25T00:33:44.297Z,3.00
2019-03-25T00:34:44.319Z,3.00
2019-03-25T00:35:44.419Z,3.00
2019-03-25T00:36:44.351Z,3.00
2019-03-25T00:37:44.307Z,3.40
2019-03-25T00:38:44.311Z,3.40
2019-03-25T00:39:44.376Z,3.40
2019-03-25T00:40:44.405Z,3.40
2019-03-25T00:41:44.435Z,3.40
2019-03-25T00:42:44.432Z,3.40
2019-03-25T00:43:44.411Z,3.40
2019-03-25T00:44:44.429Z,3.40
2019-03-25T00:45:44.405Z,3.40
2019-03-25T00:46:44.371Z,3.40
2019-03-25T00:47:44.442Z,3.00
2019-03-25T00:48:44.378Z,3.00
2019-03-25T00:49:44.440Z,3.00
2019-03-25T00:50:44.443Z,3.00
2019-03-25T00:51:44.446Z,3.00
2019-03-25T00:52:44.377Z,3.00
2019-03-25T00:53:44.443Z,3.00
2019-03-25T00:54:49.952Z,3.00
2019-03-25T00:55:44.444Z,3.00
2019-03-25T00:56:44.379Z,3.00
2019-03-25T00:57:44.459Z,2.90
2019-03-25T00:58:44.374Z,2.90
2019-03-25T00:59:44.450Z,2.90
2019-03-25T01:00:44.453Z,2.90
2019-03-25T01:01:44.379Z,2.90
2019-03-25T01:02:44.451Z,2.90
2019-03-25T01:03:44.467Z,2.90
2019-03-25T01:04:44.386Z,2.90
2019-03-25T01:05:44.483Z,2.90
2019-03-25T01:06:44.380Z,2.90
2019-03-25T01:07:44.462Z,2.50
2019-03-25T01:08:44.407Z,2.50
2019-03-25T01:09:44.464Z,2.50
2019-03-25T01:10:44.471Z,2.50
2019-03-25T01:11:48.975Z,2.50
2019-03-25T01:12:44.467Z,2.50
2019-03-25T01:13:44.453Z,2.50
2019-03-25T01:14:44.480Z,2.50
2019-03-25T01:15:44.476Z,2.50
2019-03-25T01:16:44.473Z,2.50
2019-03-25T01:17:44.408Z,3.40
2019-03-25T01:18:44.441Z,3.40
2019-03-25T01:19:44.411Z,3.40
2019-03-25T01:20:44.386Z,3.40
2019-03-25T01:21:44.435Z,3.40
2019-03-25T01:22:44.373Z,3.40
2019-03-25T01:23:44.468Z,3.40
2019-03-25T01:24:44.473Z,3.40
2019-03-25T01:25:44.473Z,3.40
2019-03-25T01:26:44.451Z,3.40
2019-03-25T01:27:44.478Z,3.10
2019-03-25T01:28:44.406Z,3.10
2019-03-25T01:29:44.488Z,3.10
2019-03-25T01:30:44.489Z,3.10
2019-03-25T01:31:44.409Z,3.10
2019-03-25T01:32:44.409Z,3.10
2019-03-25T01:33:44.412Z,3.10
2019-03-25T01:34:44.485Z,3.10
2019-03-25T01:35:44.494Z,3.10
2019-03-25T01:36:44.413Z,3.10
2019-03-25T01:37:44.484Z,2.90
2019-03-25T01:38:44.414Z,2.90
2019-03-25T01:39:44.483Z,2.90
2019-03-25T01:40:44.493Z,2.90
2019-03-25T01:41:44.494Z,2.90
2019-03-25T01:42:44.475Z,2.90
2019-03-25T01:43:44.490Z,2.90
2019-03-25T01:44:44.491Z,2.90
2019-03-25T01:45:44.488Z,2.90
2019-03-25T01:46:44.434Z,2.90
2019-03-25T01:47:44.418Z,2.50
2019-03-25T01:48:44.418Z,2.50
2019-03-25T01:49:44.438Z,2.50
2019-03-25T01:50:44.447Z,2.50
2019-03-25T01:51:44.443Z,2.50
2019-03-25T01:52:44.503Z,2.50
2019-03-25T01:53:44.427Z,2.50
2019-03-25T01:54:44.496Z,2.50
2019-03-25T01:55:44.386Z,2.50
2019-03-25T01:56:44.441Z,2.50
2019-03-25T01:57:44.424Z,3.90
2019-03-25T01:58:44.425Z,3.90
2019-03-25T01:59:44.491Z,3.90
2019-03-25T02:00:44.425Z,3.90
2019-03-25T02:01:44.496Z,3.90
2019-03-25T02:02:44.437Z,3.90
2019-03-25T02:03:44.505Z,3.90
2019-03-25T02:04:44.423Z,3.90
2019-03-25T02:05:44.494Z,3.90
2019-03-25T02:06:44.556Z,3.90
2019-03-25T02:07:44.515Z,3.60
2019-03-25T02:08:44.456Z,3.60
2019-03-25T02:09:44.512Z,3.60
2019-03-25T02:10:44.512Z,3.60
2019-03-25T02:11:44.467Z,3.60
2019-03-25T02:12:44.535Z,3.60
2019-03-25T02:13:44.459Z,3.60
2019-03-25T02:14:44.512Z,3.60
2019-03-25T02:15:44.454Z,3.60
2019-03-25T02:16:44.518Z,3.60
2019-03-25T02:17:44.455Z,3.70
2019-03-25T02:18:44.518Z,3.70
2019-03-25T02:19:44.452Z,3.70
2019-03-25T02:20:44.447Z,3.70
2019-03-25T02:21:44.515Z,3.70
2019-03-25T02:22:44.696Z,3.70
2019-03-25T02:23:44.465Z,3.70
2019-03-25T02:24:44.461Z,3.70
2019-03-25T02:25:44.464Z,3.70
2019-03-25T02:26:44.464Z,3.70
2019-03-25T02:27:44.459Z,3.30
2019-03-25T02:28:44.464Z,3.30
2019-03-25T02:29:44.471Z,3.30
2019-03-25T02:30:44.477Z,3.30
2019-03-25T02:31:44.456Z,3.30
2019-03-25T02:32:44.497Z,3.30
2019-03-25T02:33:44.530Z,3.30
2019-03-25T02:34:44.475Z,3.30
2019-03-25T02:35:44.541Z,3.30
2019-03-25T02:36:44.470Z,3.30
2019-03-25T02:37:44.526Z,3.10
2019-03-25T02:38:44.506Z,3.10
2019-03-25T02:39:44.392Z,3.10
2019-03-25T02:40:44.425Z,3.10
2019-03-25T02:41:44.399Z,3.10
2019-03-25T02:42:44.512Z,3.10
2019-03-25T02:43:44.539Z,3.10
2019-03-25T02:44:44.455Z,3.10
2019-03-25T02:45:44.448Z,3.10
2019-03-25T02:46:44.476Z,3.10
2019-03-25T02:47:44.463Z,3.50
2019-03-25T02:48:44.489Z,3.50
2019-03-25T02:49:44.485Z,3.50
2019-03-25T02:50:44.554Z,3.50
2019-03-25T02:51:44.493Z,3.50
2019-03-25T02:52:44.497Z,3.50
2019-03-25T02:53:44.466Z,3.50
2019-03-25T02:54:44.555Z,3.50
2019-03-25T02:55:44.546Z,3.50
2019-03-25T02:56:44.573Z,3.50
2019-03-25T02:57:44.615Z,3.60
2019-03-25T02:58:44.544Z,3.60
2019-03-25T02:59:44.565Z,3.60
2019-03-25T03:00:44.472Z,3.60
2019-03-25T03:01:44.550Z,3.60
2019-03-25T03:02:44.542Z,3.60
2019-03-25T03:03:44.557Z,3.60
2019-03-25T03:04:44.470Z,3.60
2019-03-25T03:05:44.553Z,3.60
2019-03-25T03:06:44.549Z,3.60
2019-03-25T03:07:44.498Z,3.60
2019-03-25T03:08:47.534Z,3.60
2019-03-25T03:09:44.490Z,3.60
2019-03-25T03:10:44.497Z,3.60
2019-03-25T03:11:44.561Z,3.60
2019-03-25T03:12:44.456Z,3.60
2019-03-25T03:13:44.561Z,3.60
2019-03-25T03:14:44.558Z,3.60
2019-03-25T03:15:44.672Z,3.60
2019-03-25T03:16:44.491Z,3.60
2019-03-25T03:17:44.554Z,3.90
2019-03-25T03:18:44.503Z,3.90
2019-03-25T03:19:44.399Z,3.90
2019-03-25T03:20:44.443Z,3.90
2019-03-25T03:21:44.434Z,3.90
2019-03-25T03:22:44.462Z,3.90
2019-03-25T03:23:44.448Z,3.90
2019-03-25T03:24:44.385Z,3.90
2019-03-25T03:25:56.340Z,3.90
2019-03-25T03:26:44.441Z,3.90
2019-03-25T03:27:44.557Z,3.70
2019-03-25T03:28:44.478Z,3.70
2019-03-25T03:29:44.504Z,3.70
2019-03-25T03:30:44.562Z,3.70
2019-03-25T03:31:44.573Z,3.70
2019-03-25T03:32:44.566Z,3.70
2019-03-25T03:33:44.604Z,3.70
2019-03-25T03:34:44.575Z,3.70
2019-03-25T03:35:46.539Z,3.70
2019-03-25T03:36:44.492Z,3.70
2019-03-25T03:37:44.567Z,3.70
2019-03-25T03:38:44.546Z,4.20
2019-03-25T03:39:44.428Z,4.20
2019-03-25T03:40:44.517Z,4.20
2019-03-25T03:41:44.474Z,4.20
2019-03-25T03:42:44.445Z,4.20
2019-03-25T03:43:44.518Z,4.20
2019-03-25T03:44:44.466Z,4.20
2019-03-25T03:45:44.565Z,4.20
2019-03-25T03:46:44.575Z,4.20
2019-03-25T03:47:44.491Z,4.20
2019-03-25T03:48:44.471Z,5.00
2019-03-25T03:49:44.499Z,5.00
2019-03-25T03:50:44.474Z,5.00
2019-03-25T03:51:44.525Z,5.00
2019-03-25T03:52:44.512Z,5.00
2019-03-25T03:53:44.458Z,5.00
2019-03-25T03:54:44.580Z,5.00
2019-03-25T03:55:44.537Z,5.00
2019-03-25T03:56:44.579Z,5.00
2019-03-25T03:57:44.565Z,5.00
2019-03-25T03:58:44.468Z,4.80
2019-03-25T03:59:44.504Z,4.80
2019-03-25T04:00:44.555Z,4.80
2019-03-25T04:01:44.541Z,4.80
2019-03-25T04:02:44.454Z,4.80
2019-03-25T04:03:44.470Z,4.80
2019-03-25T04:04:44.514Z,4.80
2019-03-25T04:05:44.543Z,4.80
2019-03-25T04:06:44.546Z,4.80
2019-03-25T04:07:44.486Z,4.80
2019-03-25T04:08:44.557Z,4.80
2019-03-25T04:09:44.526Z,4.80
2019-03-25T04:10:44.597Z,4.80
2019-03-25T04:11:44.667Z,4.80
2019-03-25T04:12:44.605Z,4.80
2019-03-25T04:13:44.536Z,4.80
2019-03-25T04:14:44.526Z,4.80
2019-03-25T04:15:44.621Z,4.80
2019-03-25T04:16:44.537Z,4.80
2019-03-25T04:17:44.528Z,4.80
2019-03-25T04:18:44.522Z,5.60
2019-03-25T04:19:44.594Z,5.60
2019-03-25T04:20:44.622Z,5.60
2019-03-25T04:21:44.666Z,5.60
2019-03-25T04:22:44.595Z,5.60
2019-03-25T04:23:46.402Z,5.60
2019-03-25T04:24:44.527Z,5.60
2019-03-25T04:25:44.601Z,5.60
2019-03-25T04:26:44.600Z,5.60
2019-03-25T04:27:44.603Z,5.60
2019-03-25T04:28:44.617Z,5.99
2019-03-25T04:29:44.548Z,5.99
2019-03-25T04:30:44.546Z,5.99
2019-03-25T04:31:44.541Z,5.99
2019-03-25T04:32:44.607Z,5.99
2019-03-25T04:33:44.539Z,5.99
2019-03-25T04:34:44.564Z,5.99
2019-03-25T04:35:44.608Z,5.99
2019-03-25T04:36:44.543Z,5.99
2019-03-25T04:37:44.551Z,5.99
2019-03-25T04:38:44.606Z,5.70
2019-03-25T04:39:44.543Z,5.70
2019-03-25T04:40:44.546Z,5.70
2019-03-25T04:41:44.605Z,5.70
2019-03-25T04:42:44.537Z,5.70
2019-03-25T04:43:44.606Z,5.70
2019-03-25T04:44:44.533Z,5.70
2019-03-25T04:45:44.548Z,5.70
2019-03-25T04:46:44.536Z,5.70
2019-03-25T04:47:44.612Z,5.70
2019-03-25T04:48:44.589Z,6.60
2019-03-25T04:49:44.623Z,6.60
2019-03-25T04:50:44.627Z,6.60
2019-03-25T04:51:44.974Z,6.60
2019-03-25T04:52:44.554Z,6.60
2019-03-25T04:53:44.686Z,6.60
2019-03-25T04:54:44.569Z,6.60
2019-03-25T04:55:44.524Z,6.60
2019-03-25T04:56:44.638Z,6.60
2019-03-25T04:57:44.582Z,6.60
2019-03-25T04:58:44.554Z,5.99
2019-03-25T04:59:44.635Z,5.99
2019-03-25T05:00:44.631Z,5.99
2019-03-25T05:01:44.643Z,5.99
2019-03-25T05:02:44.558Z,5.99
2019-03-25T05:03:44.648Z,5.99
2019-03-25T05:04:44.654Z,5.99
2019-03-25T05:05:44.526Z,5.99
2019-03-25T05:06:44.624Z,5.99
2019-03-25T05:07:44.639Z,5.99
2019-03-25T05:08:44.646Z,6.20
2019-03-25T05:09:44.638Z,6.20
2019-03-25T05:10:44.523Z,6.20
2019-03-25T05:11:44.641Z,6.20
2019-03-25T05:12:44.583Z,6.20
2019-03-25T05:13:44.577Z,6.20
2019-03-25T05:14:44.568Z,6.20
2019-03-25T05:15:44.646Z,6.20
2019-03-25T05:16:44.641Z,6.20
2019-03-25T05:17:44.649Z,6.20
2019-03-25T05:18:44.524Z,4.90
2019-03-25T05:19:44.563Z,4.90
2019-03-25T05:20:44.615Z,4.90
2019-03-25T05:21:44.556Z,4.90
2019-03-25T05:22:44.524Z,4.90
2019-03-25T05:23:44.616Z,4.90
2019-03-25T05:24:44.542Z,4.90
2019-03-25T05:25:44.617Z,4.90
2019-03-25T05:26:50.914Z,4.90
2019-03-25T05:27:44.625Z,4.90
2019-03-25T05:28:44.643Z,3.50
2019-03-25T05:29:44.565Z,3.50
2019-03-25T05:30:44.667Z,3.50
2019-03-25T05:31:44.641Z,3.50
2019-03-25T05:32:44.644Z,3.50
2019-03-25T05:33:44.642Z,3.50
2019-03-25T05:34:44.577Z,3.50
2019-03-25T05:35:46.772Z,3.50
2019-03-25T05:36:44.646Z,3.50
2019-03-25T05:37:44.574Z,3.50
2019-03-25T05:38:44.580Z,2.50
2019-03-25T05:39:44.642Z,2.50
2019-03-25T05:40:44.641Z,2.50
2019-03-25T05:41:44.636Z,2.50
2019-03-25T05:42:44.559Z,2.50
2019-03-25T05:43:44.535Z,2.50
2019-03-25T05:44:44.601Z,2.50
2019-03-25T05:45:44.560Z,2.50
2019-03-25T05:46:44.636Z,2.50
2019-03-25T05:47:44.647Z,2.50
2019-03-25T05:48:44.543Z,1.90
2019-03-25T05:49:44.577Z,1.90
2019-03-25T05:50:44.574Z,1.90
2019-03-25T05:51:44.654Z,1.90
2019-03-25T05:52:44.581Z,1.90
2019-03-25T05:53:44.582Z,1.90
2019-03-25T05:54:44.647Z,1.90
2019-03-25T05:55:44.582Z,1.90
2019-03-25T05:56:44.751Z,1.90
2019-03-25T05:57:44.656Z,1.90
2019-03-25T05:58:44.540Z,3.00
2019-03-25T05:59:44.600Z,3.00
2019-03-25T06:00:44.603Z,3.00
2019-03-25T06:01:44.536Z,3.00
2019-03-25T06:02:44.587Z,3.00
2019-03-25T06:03:44.594Z,3.00
2019-03-25T06:04:44.485Z,3.00
2019-03-25T06:05:44.554Z,3.00
2019-03-25T06:06:44.547Z,3.00
2019-03-25T06:07:44.561Z,3.00
2019-03-25T06:08:44.607Z,1.70
2019-03-25T06:09:44.605Z,1.70
2019-03-25T06:10:44.686Z,1.70
2019-03-25T06:11:44.698Z,1.70
2019-03-25T06:12:44.697Z,1.70
2019-03-25T06:13:44.608Z,1.70
2019-03-25T06:14:44.681Z,1.70
2019-03-25T06:15:44.678Z,1.70
2019-03-25T06:16:44.624Z,1.70
2019-03-25T06:17:44.677Z,1.70
2019-03-25T06:18:44.594Z,1.30
2019-03-25T06:19:44.667Z,1.30
2019-03-25T06:20:44.674Z,1.30
2019-03-25T06:21:44.604Z,1.30
2019-03-25T06:22:44.639Z,1.30
2019-03-25T06:23:44.612Z,1.30
2019-03-25T06:24:44.591Z,1.30
2019-03-25T06:25:44.605Z,1.30
2019-03-25T06:26:44.609Z,1.30
2019-03-25T06:27:44.611Z,1.30
2019-03-25T06:28:44.635Z,1.20
2019-03-25T06:29:44.544Z,1.20
2019-03-25T06:30:44.589Z,1.20
2019-03-25T06:31:44.606Z,1.20
2019-03-25T06:32:44.612Z,1.20
2019-03-25T06:33:44.639Z,1.20
2019-03-25T06:34:44.552Z,1.20
2019-03-25T06:35:44.542Z,1.20
2019-03-25T06:36:44.577Z,1.20
2019-03-25T06:37:44.647Z,1.20
2019-03-25T06:38:44.702Z,1.10
2019-03-25T06:39:44.625Z,1.10
2019-03-25T06:40:44.627Z,1.10
2019-03-25T06:41:44.699Z,1.10
2019-03-25T06:42:44.628Z,1.10
2019-03-25T06:43:44.635Z,1.10
2019-03-25T06:44:44.698Z,1.10
2019-03-25T06:45:44.698Z,1.10
2019-03-25T06:46:44.628Z,1.10
2019-03-25T06:47:44.701Z,1.10
2019-03-25T06:48:44.621Z,1.10
2019-03-25T06:49:44.660Z,1.10
2019-03-25T06:50:44.606Z,1.10
2019-03-25T06:51:45.332Z,1.10
2019-03-25T06:52:44.604Z,1.10
2019-03-25T06:53:44.625Z,1.10
2019-03-25T06:54:44.629Z,1.10
2019-03-25T06:55:44.690Z,1.10
2019-03-25T06:56:44.647Z,1.10
2019-03-25T06:57:44.700Z,1.10
2019-03-25T06:58:44.627Z,1.40
2019-03-25T06:59:44.662Z,1.40
2019-03-25T07:00:44.654Z,1.40
2019-03-25T07:01:44.675Z,1.40
2019-03-25T07:02:44.628Z,1.40
2019-03-25T07:03:44.704Z,1.40
2019-03-25T07:04:44.702Z,1.40
2019-03-25T07:05:44.679Z,1.40
2019-03-25T07:06:44.703Z,1.40
2019-03-25T07:07:44.701Z,1.40
2019-03-25T07:08:44.587Z,1.50
2019-03-25T07:09:44.616Z,1.50
2019-03-25T07:10:44.590Z,1.50
2019-03-25T07:11:44.586Z,1.50
2019-03-25T07:12:44.708Z,1.50
2019-03-25T07:13:44.695Z,1.50
2019-03-25T07:14:44.710Z,1.50
2019-03-25T07:15:44.721Z,1.50
2019-03-25T07:16:44.610Z,1.50
2019-03-25T07:17:44.700Z,1.50
2019-03-25T07:18:44.668Z,1.40
2019-03-25T07:19:44.730Z,1.40
2019-03-25T07:20:44.717Z,1.40
2019-03-25T07:21:44.655Z,1.40
2019-03-25T07:22:44.715Z,1.40
2019-03-25T07:23:44.610Z,1.40
2019-03-25T07:24:44.715Z,1.40
2019-03-25T07:25:44.642Z,1.40
2019-03-25T07:26:44.619Z,1.40
2019-03-25T07:27:44.721Z,1.40
2019-03-25T07:28:44.736Z,1.99
2019-03-25T07:29:44.634Z,1.99
2019-03-25T07:30:44.647Z,1.99
2019-03-25T07:31:44.656Z,1.99
2019-03-25T07:32:44.727Z,1.99
2019-03-25T07:33:44.649Z,1.99
2019-03-25T07:34:44.615Z,1.99
2019-03-25T07:35:44.622Z,1.99
2019-03-25T07:36:44.658Z,1.99
2019-03-25T07:37:44.628Z,1.99
2019-03-25T07:38:44.651Z,1.40
2019-03-25T07:39:44.724Z,1.40
2019-03-25T07:40:44.615Z,1.40
2019-03-25T07:41:44.743Z,1.40
2019-03-25T07:42:44.735Z,1.40
2019-03-25T07:43:44.734Z,1.40
2019-03-25T07:44:44.661Z,1.40
2019-03-25T07:45:44.647Z,1.40
2019-03-25T07:46:44.631Z,1.40
2019-03-25T07:47:44.662Z,1.40
2019-03-25T07:48:44.645Z,1.99
2019-03-25T07:49:44.645Z,1.99
2019-03-25T07:50:44.736Z,1.99
2019-03-25T07:51:44.620Z,1.99
2019-03-25T07:52:44.685Z,1.99
2019-03-25T07:53:44.674Z,1.99
2019-03-25T07:54:44.647Z,1.99
2019-03-25T07:55:44.683Z,1.99
2019-03-25T07:56:44.628Z,1.99
2019-03-25T07:57:48.546Z,1.99
2019-03-25T07:58:44.761Z,1.99
2019-03-25T07:59:44.716Z,1.99
2019-03-25T08:00:44.723Z,1.99
2019-03-25T08:01:44.687Z,1.99
2019-03-25T08:02:44.755Z,1.99
2019-03-25T08:03:44.705Z,1.99
2019-03-25T08:04:44.701Z,1.99
2019-03-25T08:05:44.757Z,1.99
2019-03-25T08:06:44.718Z,1.99
2019-03-25T08:07:44.759Z,1.99
2019-03-25T08:08:44.785Z,1.30
2019-03-25T08:09:44.751Z,1.30
2019-03-25T08:10:44.763Z,1.30
2019-03-25T08:11:44.789Z,1.30
2019-03-25T08:12:44.690Z,1.30
2019-03-25T08:13:44.756Z,1.30
2019-03-25T08:14:44.734Z,1.30
2019-03-25T08:15:44.771Z,1.30
2019-03-25T08:16:44.752Z,1.30
2019-03-25T08:17:44.667Z,1.30
2019-03-25T08:18:44.767Z,1.80
2019-03-25T08:19:44.708Z,1.80
2019-03-25T08:20:44.709Z,1.80
2019-03-25T08:21:44.769Z,1.80
2019-03-25T08:22:44.771Z,1.80
2019-03-25T08:23:44.770Z,1.80
2019-03-25T08:24:44.701Z,1.80
2019-03-25T08:25:44.710Z,1.80
2019-03-25T08:26:44.781Z,1.80
2019-03-25T08:27:44.825Z,1.80
2019-03-25T08:28:44.706Z,1.80
2019-03-25T08:29:44.710Z,1.80
2019-03-25T08:30:44.775Z,1.80
2019-03-25T08:31:44.723Z,1.80
2019-03-25T08:32:44.721Z,1.80
2019-03-25T08:33:44.799Z,1.80
2019-03-25T08:34:44.781Z,1.80
2019-03-25T08:35:44.779Z,1.80
2019-03-25T08:36:44.785Z,1.80
2019-03-25T08:37:44.753Z,1.80
2019-03-25T08:38:44.713Z,1.60
2019-03-25T08:39:44.716Z,1.60
2019-03-25T08:40:44.713Z,1.60
2019-03-25T08:41:44.711Z,1.60
2019-03-25T08:42:44.728Z,1.60
2019-03-25T08:43:44.714Z,1.60
2019-03-25T08:44:44.714Z,1.60
2019-03-25T08:45:44.784Z,1.60
2019-03-25T08:46:44.797Z,1.60
2019-03-25T08:47:44.787Z,1.60
2019-03-25T08:48:44.723Z,1.10
2019-03-25T08:49:44.789Z,1.10
2019-03-25T08:50:44.789Z,1.10
2019-03-25T08:51:44.722Z,1.10
2019-03-25T08:52:44.789Z,1.10
2019-03-25T08:53:44.722Z,1.10
2019-03-25T08:54:44.796Z,1.10
2019-03-25T08:55:44.731Z,1.10
2019-03-25T08:56:44.783Z,1.10
2019-03-25T08:57:44.787Z,1.10
2019-03-25T08:58:44.784Z,1.20
2019-03-25T08:59:44.664Z,1.20
2019-03-25T09:00:44.695Z,1.20
2019-03-25T09:01:44.745Z,1.20
2019-03-25T09:02:44.663Z,1.20
2019-03-25T09:03:44.734Z,1.20
2019-03-25T09:04:44.778Z,1.20
2019-03-25T09:05:44.661Z,1.20
2019-03-25T09:06:44.753Z,1.20
2019-03-25T09:07:44.725Z,1.20
2019-03-25T09:08:44.702Z,1.50
2019-03-25T09:09:44.787Z,1.50
2019-03-25T09:10:44.723Z,1.50
2019-03-25T09:11:44.722Z,1.50
2019-03-25T09:12:44.767Z,1.50
2019-03-25T09:13:44.797Z,1.50
2019-03-25T09:14:44.728Z,1.50
2019-03-25T09:15:44.734Z,1.50
2019-03-25T09:16:44.722Z,1.50
2019-03-25T09:17:44.734Z,1.50
2019-03-25T09:18:44.727Z,1.00
2019-03-25T09:19:44.701Z,1.00
2019-03-25T09:20:44.785Z,1.00
2019-03-25T09:21:44.686Z,1.00
2019-03-25T09:22:44.789Z,1.00
2019-03-25T09:23:44.769Z,1.00
2019-03-25T09:24:44.738Z,1.00
2019-03-25T09:25:44.751Z,1.00
2019-03-25T09:26:44.748Z,1.00
2019-03-25T09:27:44.794Z,1.00
2019-03-25T09:28:44.815Z,1.20
2019-03-25T09:29:44.765Z,1.20
2019-03-25T09:30:44.811Z,1.20
2019-03-25T09:31:44.821Z,1.20
2019-03-25T09:32:44.814Z,1.20
2019-03-25T09:33:44.826Z,1.20
2019-03-25T09:34:44.752Z,1.20
2019-03-25T09:35:44.795Z,1.20
2019-03-25T09:36:44.819Z,1.20
2019-03-25T09:37:44.816Z,1.20
2019-03-25T09:38:44.757Z,1.20
2019-03-25T09:39:44.822Z,1.20
2019-03-25T09:40:44.753Z,1.20
2019-03-25T09:41:44.834Z,1.20
2019-03-25T09:42:44.765Z,1.20
2019-03-25T09:43:44.761Z,1.20
2019-03-25T09:44:44.824Z,1.20
2019-03-25T09:45:44.829Z,1.20
2019-03-25T09:46:44.887Z,1.20
2019-03-25T09:47:44.835Z,1.20
2019-03-25T09:48:44.813Z,1.00
2019-03-25T09:49:44.731Z,1.00
2019-03-25T09:50:44.765Z,1.00
2019-03-25T09:51:44.699Z,1.00
2019-03-25T09:52:44.808Z,1.00
2019-03-25T09:53:44.723Z,1.00
2019-03-25T09:54:44.792Z,1.00
2019-03-25T09:55:44.737Z,1.00
2019-03-25T09:56:44.812Z,1.00
2019-03-25T09:58:44.737Z,2.99
2019-03-25T09:59:44.836Z,2.99
2019-03-25T10:00:44.769Z,2.99
2019-03-25T10:01:44.767Z,2.99
2019-03-25T10:02:44.793Z,2.99
2019-03-25T10:03:44.851Z,2.99
2019-03-25T10:04:44.814Z,2.99
2019-03-25T10:05:44.773Z,2.99
2019-03-25T10:06:44.841Z,2.99
2019-03-25T10:07:44.843Z,2.99
2019-03-25T10:08:44.776Z,2.99
2019-03-25T10:09:44.893Z,1.10
2019-03-25T10:10:44.797Z,1.10
2019-03-25T10:11:44.770Z,1.10
2019-03-25T10:12:44.819Z,1.10
2019-03-25T10:13:44.826Z,1.10
2019-03-25T10:14:44.736Z,1.10
2019-03-25T10:15:44.748Z,1.10
2019-03-25T10:16:44.722Z,1.10
2019-03-25T10:17:44.784Z,1.10
2019-03-25T10:18:44.828Z,1.10
2019-03-25T10:19:44.751Z,1.80
2019-03-25T10:20:44.840Z,1.80
2019-03-25T10:21:44.856Z,1.80
2019-03-25T10:22:44.774Z,1.80
2019-03-25T10:23:44.886Z,1.80
2019-03-25T10:24:44.784Z,1.80
2019-03-25T10:25:44.737Z,1.80
2019-03-25T10:26:44.776Z,1.80
2019-03-25T10:27:44.822Z,1.80
2019-03-25T10:28:48.853Z,1.80
2019-03-25T10:29:44.893Z,0.60
2019-03-25T10:30:44.866Z,0.60
2019-03-25T10:31:44.857Z,0.60
2019-03-25T10:32:44.791Z,0.60
2019-03-25T10:33:44.859Z,0.60
2019-03-25T10:34:44.859Z,0.60
2019-03-25T10:35:44.791Z,0.60
2019-03-25T10:36:44.865Z,0.60
2019-03-25T10:37:44.894Z,0.60
2019-03-25T10:38:44.781Z,0.60
2019-03-25T10:39:44.797Z,1.50
2019-03-25T10:40:44.874Z,1.50
2019-03-25T10:41:44.868Z,1.50
2019-03-25T10:42:44.796Z,1.50
2019-03-25T10:43:44.867Z,1.50
2019-03-25T10:44:44.866Z,1.50
2019-03-25T10:45:44.877Z,1.50
2019-03-25T10:46:44.873Z,1.50
2019-03-25T10:47:44.870Z,1.50
2019-03-25T10:48:44.824Z,1.50
2019-03-25T10:49:44.870Z,1.20
2019-03-25T10:50:44.843Z,1.20
2019-03-25T10:51:44.882Z,1.20
2019-03-25T10:52:44.875Z,1.20
2019-03-25T10:53:44.809Z,1.20
2019-03-25T10:54:45.004Z,1.20
2019-03-25T10:55:44.877Z,1.20
2019-03-25T10:56:49.200Z,1.20
2019-03-25T10:57:44.820Z,1.20
2019-03-25T10:58:44.810Z,1.20
2019-03-25T10:59:44.906Z,0.90
2019-03-25T11:00:44.880Z,0.90
2019-03-25T11:01:44.848Z,0.90
2019-03-25T11:02:44.817Z,0.90
2019-03-25T11:03:44.818Z,0.90
2019-03-25T11:04:44.847Z,0.90
2019-03-25T11:05:44.814Z,0.90
2019-03-25T11:06:44.886Z,0.90
2019-03-25T11:07:44.781Z,0.90
2019-03-25T11:08:44.821Z,0.90
2019-03-25T11:09:44.885Z,0.60
2019-03-25T11:10:44.886Z,0.60
2019-03-25T11:11:44.823Z,0.60
2019-03-25T11:12:44.839Z,0.60
2019-03-25T11:13:44.894Z,0.60
2019-03-25T11:14:44.902Z,0.60
2019-03-25T11:15:44.892Z,0.60
2019-03-25T11:16:44.822Z,0.60
2019-03-25T11:17:44.896Z,0.60
2019-03-25T11:18:44.902Z,0.60
2019-03-25T11:19:44.893Z,0.80
2019-03-25T11:20:44.893Z,0.80
2019-03-25T11:21:44.827Z,0.80
2019-03-25T11:22:44.784Z,0.80
2019-03-25T11:23:44.840Z,0.80
2019-03-25T11:24:44.897Z,0.80
2019-03-25T11:25:44.899Z,0.80
2019-03-25T11:26:44.931Z,0.80
2019-03-25T11:27:54.104Z,0.80
2019-03-25T11:28:44.908Z,0.80
2019-03-25T11:29:44.909Z,0.80
2019-03-25T11:30:44.835Z,0.80
2019-03-25T11:31:44.847Z,0.80
2019-03-25T11:32:44.838Z,0.80
2019-03-25T11:33:44.900Z,0.80
2019-03-25T11:34:44.850Z,0.80
2019-03-25T11:35:44.904Z,0.80
2019-03-25T11:36:44.842Z,0.80
2019-03-25T11:37:44.904Z,0.80
2019-03-25T11:38:44.853Z,0.80
2019-03-25T11:39:44.908Z,1.20
2019-03-25T11:40:44.917Z,1.20
2019-03-25T11:41:44.840Z,1.20
2019-03-25T11:42:44.810Z,1.20
2019-03-25T11:43:44.913Z,1.20
2019-03-25T11:44:44.905Z,1.20
2019-03-25T11:45:44.923Z,1.20
2019-03-25T11:46:44.843Z,1.20
2019-03-25T11:47:44.845Z,1.20
2019-03-25T11:48:44.846Z,1.20
2019-03-25T11:49:44.872Z,0.80
2019-03-25T11:50:44.924Z,0.80
2019-03-25T11:51:44.847Z,0.80
2019-03-25T11:52:44.916Z,0.80
2019-03-25T11:53:44.921Z,0.80
2019-03-25T11:54:44.923Z,0.80
2019-03-25T11:55:44.944Z,0.80
2019-03-25T11:56:44.852Z,0.80
2019-03-25T11:57:44.879Z,0.80
2019-03-25T11:58:44.881Z,0.80
2019-03-25T11:59:44.912Z,1.50
2019-03-25T12:00:44.884Z,1.50
2019-03-25T12:01:44.826Z,1.50
2019-03-25T12:02:44.914Z,1.50
2019-03-25T12:03:44.908Z,1.50
2019-03-25T12:04:44.817Z,1.50
2019-03-25T12:05:44.827Z,1.50
2019-03-25T12:06:44.911Z,1.50
2019-03-25T12:07:44.831Z,1.50
2019-03-25T12:08:44.880Z,1.50
2019-03-25T12:09:44.827Z,1.00
2019-03-25T12:10:44.844Z,1.00
2019-03-25T12:11:44.914Z,1.00
2019-03-25T12:12:44.923Z,1.00
2019-03-25T12:13:44.925Z,1.00
2019-03-25T12:14:44.924Z,1.00
2019-03-25T12:15:44.884Z,1.00
2019-03-25T12:16:44.830Z,1.00
2019-03-25T12:17:44.857Z,1.00
2019-03-25T12:18:44.935Z,1.00
2019-03-25T12:19:44.831Z,0.60
2019-03-25T12:20:44.916Z,0.60
2019-03-25T12:21:44.928Z,0.60
2019-03-25T12:22:44.806Z,0.60
2019-03-25T12:23:44.815Z,0.60
2019-03-25T12:24:44.925Z,0.60
2019-03-25T12:25:44.832Z,0.60
2019-03-25T12:26:44.813Z,0.60
2019-03-25T12:27:44.879Z,0.60
2019-03-25T12:28:44.918Z,0.60
2019-03-25T12:29:44.949Z,0.60
2019-03-25T12:30:44.945Z,0.60
2019-03-25T12:31:44.879Z,0.60
2019-03-25T12:32:44.948Z,0.60
2019-03-25T12:33:44.845Z,0.60
2019-03-25T12:34:44.889Z,0.60
2019-03-25T12:35:44.949Z,0.60
2019-03-25T12:36:44.880Z,0.60
2019-03-25T12:37:44.961Z,0.60
2019-03-25T12:38:44.951Z,0.60
2019-03-25T12:39:44.848Z,0.80
2019-03-25T12:40:44.818Z,0.80
2019-03-25T12:41:44.910Z,0.80
2019-03-25T12:42:44.883Z,0.80
2019-03-25T12:43:44.855Z,0.80
2019-03-25T12:44:44.939Z,0.80
2019-03-25T12:45:44.854Z,0.80
2019-03-25T12:46:44.932Z,0.80
2019-03-25T12:47:44.882Z,0.80
2019-03-25T12:48:44.948Z,0.80
2019-03-25T12:49:44.887Z,0.50
2019-03-25T12:50:44.966Z,0.50
2019-03-25T12:51:44.891Z,0.50
2019-03-25T12:52:44.900Z,0.50
2019-03-25T12:53:44.962Z,0.50
2019-03-25T12:54:44.960Z,0.50
2019-03-25T12:55:44.963Z,0.50
2019-03-25T12:56:44.973Z,0.50
2019-03-25T12:57:44.899Z,0.50
2019-03-25T12:58:44.920Z,0.50
2019-03-25T12:59:44.902Z,1.00
2019-03-25T13:00:44.864Z,1.00
2019-03-25T13:01:52.977Z,1.00
2019-03-25T13:02:44.904Z,1.00
2019-03-25T13:03:44.900Z,1.00
2019-03-25T13:04:44.838Z,1.00
2019-03-25T13:05:44.955Z,1.00
2019-03-25T13:06:44.958Z,1.00
2019-03-25T13:07:44.932Z,1.00
2019-03-25T13:08:44.840Z,1.00
2019-03-25T13:09:44.972Z,0.60
2019-03-25T13:10:44.908Z,0.60
2019-03-25T13:11:44.909Z,0.60
2019-03-25T13:12:44.923Z,0.60
2019-03-25T13:13:44.976Z,0.60
2019-03-25T13:14:44.922Z,0.60
2019-03-25T13:15:44.909Z,0.60
2019-03-25T13:16:44.920Z,0.60
2019-03-25T13:17:44.986Z,0.60
2019-03-25T13:18:44.909Z,0.60
2019-03-25T13:19:44.981Z,0.90